Time;durP1;ratioP1;P1;durP2;ratioP2;P2;SDS_P1;SDS_P2;PMS_P1;PMS_P2;Temp;Humidity;BMP_temperature;BMP_pressure;BME280_temperature;BME280_humidity;BME280_pressure;Samples;Min_cycle;Max_cycle;Signal;HPM_P1;HPM_P2
2022/06/02 00:02:06;;;;;;;;;;;14.60;93.00;;;;;;4304978;33;45773;-76
2022/06/02 00:04:45;;;;;;;;;;;14.60;93.00;;;;;;4305713;33;22880;-77
2022/06/02 00:07:36;;;;;;;;;;;14.60;93.20;;;;;;4304643;33;42390;-77
2022/06/02 00:10:06;;;;;;;;;;;14.60;93.10;;;;;;4278052;33;45621;-76
2022/06/02 00:12:47;;;;;;;;;;;14.50;93.20;;;;;;4305064;33;43866;-77
2022/06/02 00:15:23;;;;;;;;;;;14.50;93.10;;;;;;4305108;33;45258;-76
2022/06/02 00:17:50;;;;;;;;;;;14.50;93.10;;;;;;4304564;33;45310;-77
2022/06/02 00:20:20;;;;;;;;;;;14.50;93.10;;;;;;4316838;33;46049;-77
2022/06/02 00:22:47;;;;;;;;;;;14.50;93.00;;;;;;4304047;33;44922;-77
2022/06/02 00:25:17;;;;;;;;;;;14.50;93.10;;;;;;4317621;33;42808;-77
2022/06/02 00:27:55;;;;;;;;;;;14.50;92.90;;;;;;4316635;33;45854;-77
2022/06/02 00:30:32;;;;;;;;;;;14.40;93.00;;;;;;4304649;33;44066;-77
2022/06/02 00:33:09;;;;;;;;;;;14.40;93.00;;;;;;4304657;33;45781;-77
2022/06/02 00:35:51;;;;;;;;;;;14.40;93.10;;;;;;4304888;33;43221;-76
2022/06/02 00:38:22;;;;;;;;;;;14.40;93.00;;;;;;4304457;33;44984;-77
2022/06/02 00:40:51;;;;;;;;;;;14.40;93.10;;;;;;4304517;33;45333;-76
2022/06/02 00:43:21;;;;;;;;;;;14.30;93.00;;;;;;4317583;33;43827;-76
2022/06/02 00:45:52;;;;;;;;;;;14.30;93.00;;;;;;4316656;33;43072;-76
2022/06/02 00:48:29;;;;;;;;;;;14.30;93.10;;;;;;4317557;33;42349;-76
2022/06/02 00:51:04;;;;;;;;;;;14.30;93.10;;;;;;4316466;33;44242;-77
2022/06/02 00:53:40;;;;;;;;;;;14.30;93.10;;;;;;4303934;33;42918;-77
2022/06/02 00:59:26;;;;;;;;;;;14.20;92.90;;;;;;4317367;33;45766;-77
2022/06/02 01:01:55;;;;;;;;;;;14.20;93.00;;;;;;4316802;33;42858;-77
2022/06/02 01:04:28;;;;;;;;;;;14.20;93.10;;;;;;4304236;33;44241;-77
2022/06/02 01:06:58;;;;;;;;;;;14.20;93.20;;;;;;4304242;33;46124;-77
2022/06/02 01:09:25;;;;;;;;;;;14.20;93.20;;;;;;4316146;33;45461;-76
2022/06/02 01:12:11;;;;;;;;;;;14.10;93.20;;;;;;4315582;33;44001;-77
2022/06/02 01:14:55;;;;;;;;;;;14.10;93.10;;;;;;4315652;33;43478;-76
2022/06/02 01:17:22;;;;;;;;;;;14.10;93.10;;;;;;4315439;33;43743;-76
2022/06/02 01:19:59;;;;;;;;;;;14.10;93.10;;;;;;4315484;33;42710;-76
2022/06/02 01:22:32;;;;;;;;;;;14.10;93.10;;;;;;4316945;33;43686;-77
2022/06/02 01:25:18;;;;;;;;;;;14.00;93.00;;;;;;4316158;33;44183;-77
2022/06/02 01:27:45;;;;;;;;;;;14.10;93.10;;;;;;4304064;33;45937;-77
2022/06/02 01:30:37;;;;;;;;;;;14.10;93.10;;;;;;4315267;33;44184;-77
2022/06/02 01:33:15;;;;;;;;;;;14.00;93.10;;;;;;4303765;33;44219;-77
2022/06/02 01:36:01;;;;;;;;;;;14.00;93.00;;;;;;4303874;33;43146;-77
2022/06/02 01:38:32;;;;;;;;;;;14.00;93.10;;;;;;4315792;33;45882;-77
2022/06/02 01:40:59;;;;;;;;;;;14.00;93.00;;;;;;4316696;33;45216;-77
2022/06/02 01:43:38;;;;;;;;;;;14.00;93.10;;;;;;4316870;33;46079;-76
2022/06/02 01:46:15;;;;;;;;;;;14.00;93.10;;;;;;4303574;33;43694;-77
2022/06/02 01:48:45;;;;;;;;;;;13.90;93.10;;;;;;4316828;33;43860;-76
2022/06/02 01:51:25;;;;;;;;;;;14.00;93.10;;;;;;4315522;33;43087;-76
2022/06/02 01:54:02;;;;;;;;;;;13.90;93.10;;;;;;4315420;33;46114;-76
2022/06/02 01:56:35;;;;;;;;;;;13.90;93.10;;;;;;4315705;33;43541;-76
2022/06/02 01:59:12;;;;;;;;;;;13.90;93.10;;;;;;4315489;33;43361;-77
2022/06/02 02:01:46;;;;;;;;;;;13.90;93.10;;;;;;4316250;33;44694;-76
2022/06/02 02:04:26;;;;;;;;;;;13.90;93.10;;;;;;4303183;33;42114;-77
2022/06/02 02:06:59;;;;;;;;;;;13.90;93.10;;;;;;4316053;33;20383;-77
2022/06/02 02:09:29;;;;;;;;;;;13.80;93.10;;;;;;4315093;33;45893;-77
2022/06/02 02:11:58;;;;;;;;;;;13.80;93.10;;;;;;4314908;33;43288;-77
2022/06/02 02:14:44;;;;;;;;;;;13.80;93.10;;;;;;4302504;33;45431;-77
2022/06/02 02:17:21;;;;;;;;;;;13.80;93.10;;;;;;4302727;33;43734;-76
2022/06/02 02:19:57;;;;;;;;;;;13.80;93.20;;;;;;4316348;33;44036;-77
2022/06/02 02:22:31;;;;;;;;;;;13.80;93.20;;;;;;4316497;33;44263;-77
2022/06/02 02:25:01;;;;;;;;;;;13.70;93.20;;;;;;4303168;33;45778;-77
2022/06/02 02:28:02;;;;;;;;;;;13.70;93.20;;;;;;4314583;33;42062;-77
2022/06/02 02:30:48;;;;;;;;;;;13.70;93.20;;;;;;4316015;33;44777;-76
2022/06/02 02:33:35;;;;;;;;;;;13.70;93.20;;;;;;4306786;33;45794;-77
2022/06/02 02:36:11;;;;;;;;;;;13.70;93.20;;;;;;4316171;33;45802;-77
2022/06/02 02:38:58;;;;;;;;;;;13.70;93.30;;;;;;4315152;33;44950;-76
2022/06/02 02:41:36;;;;;;;;;;;13.70;93.30;;;;;;4314873;33;44363;-77
2022/06/02 02:44:17;;;;;;;;;;;13.70;93.20;;;;;;4314741;33;45613;-76
2022/06/02 02:47:03;;;;;;;;;;;13.60;93.20;;;;;;4303116;33;45804;-76
2022/06/02 02:49:37;;;;;;;;;;;13.60;93.30;;;;;;4316134;33;43826;-77
2022/06/02 02:52:12;;;;;;;;;;;13.70;93.30;;;;;;4315954;33;44242;-77
2022/06/02 02:54:49;;;;;;;;;;;13.60;93.60;;;;;;4302392;33;43150;-76
2022/06/02 02:57:16;;;;;;;;;;;13.60;93.60;;;;;;4314895;33;43478;-76
2022/06/02 02:59:58;;;;;;;;;;;13.60;93.20;;;;;;4314629;33;42918;-76
2022/06/02 03:02:32;;;;;;;;;;;13.60;93.30;;;;;;4302256;33;42987;-76
2022/06/02 03:05:21;;;;;;;;;;;13.60;93.30;;;;;;4302908;33;44831;-76
2022/06/02 03:07:48;;;;;;;;;;;13.50;93.30;;;;;;4315496;33;20009;-76
2022/06/02 03:10:18;;;;;;;;;;;13.50;93.30;;;;;;4302808;33;44734;-78
2022/06/02 03:12:56;;;;;;;;;;;13.50;93.20;;;;;;4302566;33;44259;-77
2022/06/02 03:15:27;;;;;;;;;;;13.50;93.20;;;;;;4302643;33;45174;-77
2022/06/02 03:18:12;;;;;;;;;;;13.50;93.20;;;;;;4302703;33;43660;-77
2022/06/02 03:20:48;;;;;;;;;;;13.50;93.20;;;;;;4302762;33;44708;-76
2022/06/02 03:23:29;;;;;;;;;;;13.40;93.20;;;;;;4302602;33;44040;-76
2022/06/02 03:26:02;;;;;;;;;;;13.40;93.20;;;;;;4315886;33;45355;-77
2022/06/02 03:28:29;;;;;;;;;;;13.40;93.30;;;;;;4302844;33;44045;-77
2022/06/02 03:31:01;;;;;;;;;;;13.40;93.30;;;;;;4314371;33;44626;-76
2022/06/02 03:33:41;;;;;;;;;;;13.40;93.30;;;;;;4302555;33;46096;-77
2022/06/02 03:36:18;;;;;;;;;;;13.40;93.30;;;;;;4314129;33;42934;-76
2022/06/02 03:39:04;;;;;;;;;;;13.40;93.20;;;;;;4303502;33;20466;-76
2022/06/02 03:41:40;;;;;;;;;;;13.40;93.30;;;;;;4314575;33;44761;-77
2022/06/02 03:44:17;;;;;;;;;;;13.30;93.20;;;;;;4314695;33;46090;-77
2022/06/02 03:47:00;;;;;;;;;;;13.30;93.10;;;;;;4315009;33;44387;-76
2022/06/02 03:49:37;;;;;;;;;;;13.30;93.20;;;;;;4302587;33;43335;-76
2022/06/02 03:52:14;;;;;;;;;;;13.30;93.20;;;;;;4302114;33;43098;-77
2022/06/02 03:55:02;;;;;;;;;;;13.30;93.30;;;;;;4315516;33;43893;-77
2022/06/02 03:57:38;;;;;;;;;;;13.30;93.30;;;;;;4303668;33;42663;-76
2022/06/02 04:00:23;;;;;;;;;;;13.20;93.30;;;;;;4317265;33;44887;-77
2022/06/02 04:03:02;;;;;;;;;;;13.20;93.30;;;;;;4304610;33;45293;-76
2022/06/02 04:05:50;;;;;;;;;;;13.20;93.40;;;;;;4305595;33;43263;-76
2022/06/02 04:08:29;;;;;;;;;;;13.20;93.40;;;;;;4317192;33;43980;-77
2022/06/02 04:11:10;;;;;;;;;;;13.20;93.50;;;;;;4317380;33;44083;-77
2022/06/02 04:13:43;;;;;;;;;;;13.20;93.60;;;;;;4304785;33;45228;-77
2022/06/02 04:16:17;;;;;;;;;;;13.20;93.60;;;;;;4317090;33;39960;-77
2022/06/02 04:20:34;;;;;;;;;;;13.20;93.70;;;;;;4304551;33;44177;-77
2022/06/02 04:22:09;;;;;;;;;;;13.20;93.70;;;;;;4317712;33;45047;-77
2022/06/02 04:24:38;;;;;;;;;;;13.20;93.80;;;;;;4305040;33;43881;-77
2022/06/02 04:27:15;;;;;;;;;;;13.20;93.70;;;;;;4317973;33;44203;-77
2022/06/02 04:30:08;;;;;;;;;;;13.10;93.70;;;;;;4304845;33;46149;-76
2022/06/02 04:32:54;;;;;;;;;;;13.10;93.70;;;;;;4301903;33;45100;-76
2022/06/02 04:35:28;;;;;;;;;;;13.10;93.80;;;;;;4304172;33;44608;-76
2022/06/02 04:38:01;;;;;;;;;;;13.20;93.90;;;;;;4317646;33;43962;-76
2022/06/02 04:40:34;;;;;;;;;;;13.10;93.90;;;;;;4316756;33;43845;-77
2022/06/02 04:43:21;;;;;;;;;;;13.10;94.00;;;;;;4316436;33;45825;-76
2022/06/02 04:45:55;;;;;;;;;;;13.10;94.00;;;;;;4317717;33;44805;-77
2022/06/02 04:48:22;;;;;;;;;;;13.20;94.20;;;;;;4316804;33;44206;-76
2022/06/02 04:51:14;;;;;;;;;;;13.10;94.20;;;;;;4317470;33;44344;-77
2022/06/02 04:53:53;;;;;;;;;;;13.10;94.20;;;;;;4303791;33;44185;-77
2022/06/02 04:56:43;;;;;;;;;;;13.20;94.30;;;;;;4304278;33;44843;-77
2022/06/02 04:59:23;;;;;;;;;;;13.10;94.30;;;;;;4304478;33;43182;-77
2022/06/02 05:01:56;;;;;;;;;;;13.10;94.50;;;;;;4303988;33;44319;-76
2022/06/02 05:04:46;;;;;;;;;;;13.10;94.60;;;;;;4317222;33;44608;-76
2022/06/02 05:07:25;;;;;;;;;;;13.10;94.70;;;;;;4315420;33;42518;-77
2022/06/02 05:10:08;;;;;;;;;;;13.10;94.70;;;;;;4304262;33;42654;-77
2022/06/02 05:13:04;;;;;;;;;;;13.10;94.80;;;;;;4304470;33;44177;-77
2022/06/02 05:15:37;;;;;;;;;;;13.10;95.20;;;;;;4291580;33;43983;-77
2022/06/02 05:18:13;;;;;;;;;;;13.10;95.20;;;;;;4316074;33;44851;-77
2022/06/02 05:21:00;;;;;;;;;;;13.10;95.20;;;;;;4303953;33;42303;-76
2022/06/02 05:23:33;;;;;;;;;;;13.10;95.50;;;;;;4315410;33;45400;-77
2022/06/02 05:26:10;;;;;;;;;;;13.10;95.50;;;;;;4315978;33;44661;-77
2022/06/02 05:28:56;;;;;;;;;;;13.10;95.60;;;;;;4304205;33;44101;-77
2022/06/02 05:31:36;;;;;;;;;;;13.10;95.70;;;;;;4315843;33;43290;-77
2022/06/02 05:34:23;;;;;;;;;;;13.10;95.70;;;;;;4315669;33;42885;-77
2022/06/02 05:36:56;;;;;;;;;;;13.00;96.00;;;;;;4315871;33;44290;-77
2022/06/02 05:39:42;;;;;;;;;;;13.10;96.00;;;;;;4315070;33;44557;-77
2022/06/02 05:42:09;;;;;;;;;;;13.10;96.10;;;;;;4316210;33;43044;-77
2022/06/02 05:44:39;;;;;;;;;;;13.10;96.40;;;;;;4316848;33;43530;-77
2022/06/02 05:47:21;;;;;;;;;;;13.10;96.40;;;;;;4315535;33;44188;-77
2022/06/02 05:50:08;;;;;;;;;;;13.10;96.50;;;;;;4303506;33;43060;-77
2022/06/02 05:52:49;;;;;;;;;;;13.10;96.60;;;;;;4303913;33;43931;-77
2022/06/02 05:55:25;;;;;;;;;;;13.10;96.80;;;;;;4315471;33;45885;-77
2022/06/02 05:57:58;;;;;;;;;;;13.10;96.40;;;;;;4315401;33;44245;-77
2022/06/02 06:00:31;;;;;;;;;;;13.10;96.60;;;;;;4315694;33;44159;-77
2022/06/02 06:03:07;;;;;;;;;;;13.10;96.70;;;;;;4302967;33;45977;-77
2022/06/02 06:05:43;;;;;;;;;;;13.10;96.70;;;;;;4316454;33;45460;-77
2022/06/02 06:08:15;;;;;;;;;;;13.10;96.80;;;;;;4314839;33;44910;-77
2022/06/02 06:11:01;;;;;;;;;;;13.10;96.80;;;;;;4303247;33;43455;-77
2022/06/02 06:13:40;;;;;;;;;;;13.10;96.70;;;;;;4316565;33;45321;-78
2022/06/02 06:16:30;;;;;;;;;;;13.10;97.00;;;;;;4315170;33;44201;-77
2022/06/02 06:19:03;;;;;;;;;;;13.10;97.00;;;;;;4315895;33;45675;-77
2022/06/02 06:21:44;;;;;;;;;;;13.20;96.90;;;;;;4303307;33;44321;-77
2022/06/02 06:24:40;;;;;;;;;;;13.20;97.00;;;;;;4303202;33;43451;-77
2022/06/02 06:27:26;;;;;;;;;;;13.20;96.90;;;;;;4303127;33;45369;-77
2022/06/02 06:29:56;;;;;;;;;;;13.20;96.70;;;;;;4314859;33;43472;-77
2022/06/02 06:32:29;;;;;;;;;;;13.20;97.00;;;;;;4314602;33;42763;-77
2022/06/02 06:34:58;;;;;;;;;;;13.20;96.90;;;;;;4315053;33;43411;-78
2022/06/02 06:37:45;;;;;;;;;;;13.20;96.90;;;;;;4314670;33;43059;-77
2022/06/02 06:40:36;;;;;;;;;;;13.20;97.00;;;;;;4315291;33;44842;-77
2022/06/02 06:43:06;;;;;;;;;;;13.30;96.80;;;;;;4286220;33;44709;-77
2022/06/02 06:45:48;;;;;;;;;;;13.20;96.90;;;;;;4315429;33;20037;-77
2022/06/02 06:48:22;;;;;;;;;;;13.30;96.90;;;;;;4302899;33;43203;-78
2022/06/02 06:50:58;;;;;;;;;;;13.30;96.90;;;;;;4302877;33;44630;-77
2022/06/02 06:53:41;;;;;;;;;;;13.30;97.00;;;;;;4315881;33;44549;-77
2022/06/02 06:56:13;;;;;;;;;;;13.30;97.10;;;;;;4314886;33;43760;-77
2022/06/02 06:58:59;;;;;;;;;;;13.30;97.00;;;;;;4302406;33;42309;-77
2022/06/02 07:01:49;;;;;;;;;;;13.40;97.00;;;;;;4314575;33;44245;-77
2022/06/02 07:04:35;;;;;;;;;;;13.40;96.70;;;;;;4302946;33;43530;-77
2022/06/02 07:07:08;;;;;;;;;;;13.30;96.60;;;;;;4315666;33;42851;-77
2022/06/02 07:09:41;;;;;;;;;;;13.30;96.50;;;;;;4302742;33;44585;-76
2022/06/02 07:15:07;;;;;;;;;;;13.40;96.70;;;;;;4315669;33;44899;-77
2022/06/02 07:17:40;;;;;;;;;;;13.40;96.70;;;;;;4302253;33;44295;-77
2022/06/02 07:20:33;;;;;;;;;;;13.40;96.50;;;;;;4314985;33;45099;-77
2022/06/02 07:23:15;;;;;;;;;;;13.40;96.60;;;;;;4314629;33;44698;-76
2022/06/02 07:25:51;;;;;;;;;;;13.40;96.60;;;;;;4302784;33;44216;-77
2022/06/02 07:28:24;;;;;;;;;;;13.40;96.80;;;;;;4302812;33;43482;-77
2022/06/02 07:30:59;;;;;;;;;;;13.50;96.80;;;;;;4315753;33;43884;-77
2022/06/02 07:33:43;;;;;;;;;;;13.50;96.70;;;;;;4305572;33;44099;-76
2022/06/02 07:36:29;;;;;;;;;;;13.50;96.80;;;;;;4305354;33;44235;-77
2022/06/02 07:38:56;;;;;;;;;;;13.60;97.00;;;;;;4317689;33;44786;-77
2022/06/02 07:41:48;;;;;;;;;;;13.50;97.10;;;;;;4317352;33;45815;-77
2022/06/02 07:44:51;;;;;;;;;;;13.60;97.20;;;;;;4304983;33;43660;-76
2022/06/02 07:47:27;;;;;;;;;;;13.60;96.70;;;;;;4259620;33;20093;-76
2022/06/02 07:50:05;;;;;;;;;;;13.60;96.60;;;;;;4309000;33;46125;-76
2022/06/02 07:52:42;;;;;;;;;;;13.60;96.60;;;;;;4318324;33;43206;-76
2022/06/02 07:55:09;;;;;;;;;;;13.70;96.80;;;;;;4318193;33;42780;-77
2022/06/02 07:57:45;;;;;;;;;;;13.70;96.60;;;;;;4316595;33;45968;-77
2022/06/02 08:00:13;;;;;;;;;;;13.70;96.50;;;;;;4305512;33;43685;-77
2022/06/02 08:03:08;;;;;;;;;;;13.80;96.50;;;;;;4316736;33;44025;-77
2022/06/02 08:05:41;;;;;;;;;;;13.80;96.60;;;;;;4305160;33;43699;-77
2022/06/02 08:08:32;;;;;;;;;;;13.80;96.70;;;;;;4305521;33;44227;-77
2022/06/02 08:11:11;;;;;;;;;;;13.80;96.70;;;;;;4317793;33;42834;-77
2022/06/02 08:13:44;;;;;;;;;;;13.80;96.50;;;;;;4304837;33;45806;-77
2022/06/02 08:16:15;;;;;;;;;;;13.80;96.90;;;;;;4316759;33;42944;-78
2022/06/02 08:18:42;;;;;;;;;;;13.80;96.80;;;;;;4316726;33;43508;-77
2022/06/02 08:21:29;;;;;;;;;;;13.90;96.60;;;;;;4316525;33;43491;-77
2022/06/02 08:24:08;;;;;;;;;;;13.90;96.40;;;;;;4317435;33;42473;-77
2022/06/02 08:26:47;;;;;;;;;;;13.90;96.30;;;;;;4316863;33;43599;-77
2022/06/02 08:29:25;;;;;;;;;;;13.90;96.40;;;;;;4316992;33;43245;-77
2022/06/02 08:32:01;;;;;;;;;;;13.90;96.50;;;;;;4304513;33;43075;-76
2022/06/02 08:34:38;;;;;;;;;;;13.90;96.40;;;;;;4316516;33;44161;-77
2022/06/02 08:37:28;;;;;;;;;;;13.90;96.30;;;;;;4316687;33;43886;-77
2022/06/02 08:40:15;;;;;;;;;;;14.00;96.20;;;;;;4306206;33;46457;-76
2022/06/02 08:42:51;;;;;;;;;;;14.00;96.20;;;;;;4317118;33;43456;-77
2022/06/02 08:45:30;;;;;;;;;;;14.10;96.20;;;;;;4304441;33;46153;-77
2022/06/02 08:48:08;;;;;;;;;;;14.10;96.20;;;;;;4304801;33;45292;-77
2022/06/02 08:51:02;;;;;;;;;;;14.10;96.10;;;;;;4316617;33;43528;-77
2022/06/02 08:53:52;;;;;;;;;;;14.20;96.10;;;;;;4304503;33;44849;-77
2022/06/02 08:56:22;;;;;;;;;;;14.20;96.10;;;;;;4304412;33;44416;-77
2022/06/02 08:59:08;;;;;;;;;;;14.20;96.00;;;;;;4316701;33;44171;-77
2022/06/02 09:01:39;;;;;;;;;;;14.30;95.80;;;;;;4317249;33;44784;-77
2022/06/02 09:04:34;;;;;;;;;;;14.30;95.90;;;;;;4317261;33;45868;-77
2022/06/02 09:07:09;;;;;;;;;;;14.30;95.60;;;;;;4317286;33;44714;-76
2022/06/02 09:10:15;;;;;;;;;;;14.30;95.30;;;;;;4307211;33;20053;-76
2022/06/02 09:12:58;;;;;;;;;;;14.40;95.10;;;;;;4316127;33;43886;-77
2022/06/02 09:15:29;;;;;;;;;;;14.40;94.70;;;;;;4304234;33;44859;-77
2022/06/02 09:17:59;;;;;;;;;;;14.40;94.60;;;;;;4315697;33;43907;-77
2022/06/02 09:20:55;;;;;;;;;;;14.40;94.80;;;;;;4316828;33;20044;-77
2022/06/02 09:23:31;;;;;;;;;;;14.40;94.90;;;;;;4282514;33;45994;-76
2022/06/02 09:26:07;;;;;;;;;;;14.40;95.30;;;;;;4303581;33;42815;-77
2022/06/02 09:28:44;;;;;;;;;;;14.40;95.40;;;;;;4315618;33;42851;-77
2022/06/02 09:31:30;;;;;;;;;;;14.50;95.50;;;;;;4316982;33;45061;-77
2022/06/02 09:34:29;;;;;;;;;;;14.50;95.50;;;;;;4316086;33;45939;-77
2022/06/02 09:37:10;;;;;;;;;;;14.50;95.50;;;;;;4316860;33;43868;-77
2022/06/02 09:39:46;;;;;;;;;;;14.50;94.90;;;;;;4303788;33;43506;-77
2022/06/02 09:42:20;;;;;;;;;;;14.60;95.00;;;;;;4316152;33;44379;-77
2022/06/02 09:44:48;;;;;;;;;;;14.60;94.80;;;;;;4315680;33;42683;-77
2022/06/02 09:47:27;;;;;;;;;;;14.60;94.90;;;;;;4316687;33;45432;-77
2022/06/02 09:50:09;;;;;;;;;;;14.60;95.00;;;;;;4315131;33;43047;-77
2022/06/02 09:52:53;;;;;;;;;;;14.70;93.70;;;;;;4303675;33;44149;-77
2022/06/02 09:55:32;;;;;;;;;;;14.70;93.30;;;;;;4303199;33;42961;-77
2022/06/02 09:58:02;;;;;;;;;;;14.80;94.00;;;;;;4303692;33;45369;-78
2022/06/02 10:00:36;;;;;;;;;;;14.80;94.00;;;;;;4315154;33;44214;-78
2022/06/02 10:03:12;;;;;;;;;;;14.80;94.20;;;;;;4314799;33;45713;-78
2022/06/02 10:05:43;;;;;;;;;;;14.80;94.00;;;;;;4315999;33;26968;-78
2022/06/02 10:08:13;;;;;;;;;;;14.90;93.40;;;;;;4315398;33;46117;-77
2022/06/02 10:10:59;;;;;;;;;;;14.90;93.40;;;;;;4314634;33;43532;-78
2022/06/02 10:13:33;;;;;;;;;;;15.00;93.80;;;;;;4315416;33;43100;-78
2022/06/02 10:16:20;;;;;;;;;;;14.90;93.90;;;;;;4303222;33;44197;-78
2022/06/02 10:18:56;;;;;;;;;;;15.00;93.70;;;;;;4302804;33;43529;-78
2022/06/02 10:21:47;;;;;;;;;;;15.00;93.30;;;;;;4315997;33;20473;-78
2022/06/02 10:24:20;;;;;;;;;;;15.10;92.80;;;;;;4302937;33;43376;-77
2022/06/02 10:27:09;;;;;;;;;;;15.10;92.50;;;;;;4315276;33;44888;-77
2022/06/02 10:29:55;;;;;;;;;;;15.10;93.30;;;;;;4314750;33;44404;-78
2022/06/02 10:32:41;;;;;;;;;;;15.10;93.30;;;;;;4316240;33;45814;-77
2022/06/02 10:35:38;;;;;;;;;;;15.10;93.00;;;;;;4315065;33;44156;-78
2022/06/02 10:38:22;;;;;;;;;;;15.20;93.50;;;;;;4303106;33;43094;-78
2022/06/02 10:41:21;;;;;;;;;;;15.30;93.00;;;;;;4303165;33;44219;-77
2022/06/02 10:44:19;;;;;;;;;;;15.30;93.00;;;;;;4302082;33;46143;-78
2022/06/02 10:47:22;;;;;;;;;;;15.30;92.50;;;;;;4302479;33;43313;-77
2022/06/02 10:50:19;;;;;;;;;;;15.30;92.60;;;;;;4302853;33;45677;-78
2022/06/02 10:52:49;;;;;;;;;;;15.40;93.20;;;;;;4302996;33;44161;-78
2022/06/02 10:55:43;;;;;;;;;;;15.40;93.40;;;;;;4314409;33;42452;-78
2022/06/02 10:58:29;;;;;;;;;;;15.40;93.00;;;;;;4315915;33;45607;-78
2022/06/02 11:01:21;;;;;;;;;;;15.40;92.90;;;;;;4314349;33;42898;-77
2022/06/02 11:04:08;;;;;;;;;;;15.50;92.90;;;;;;4302759;33;43879;-78
2022/06/02 11:07:03;;;;;;;;;;;15.50;92.70;;;;;;4318419;33;42553;-77
2022/06/02 11:09:49;;;;;;;;;;;15.60;92.30;;;;;;4307659;33;46091;-78
2022/06/02 11:12:35;;;;;;;;;;;15.70;92.10;;;;;;4319655;33;43641;-78
2022/06/02 11:15:04;;;;;;;;;;;15.70;91.70;;;;;;4319485;33;44709;-77
2022/06/02 11:17:55;;;;;;;;;;;15.70;91.40;;;;;;4319007;33;43018;-78
2022/06/02 11:20:44;;;;;;;;;;;15.80;91.10;;;;;;4300256;33;43950;-77
2022/06/02 11:23:32;;;;;;;;;;;15.90;90.90;;;;;;4321558;33;20049;-78
2022/06/02 11:26:23;;;;;;;;;;;16.00;91.20;;;;;;4318995;33;44306;-78
2022/06/02 11:29:09;;;;;;;;;;;15.90;91.10;;;;;;4306967;33;43535;-77
2022/06/02 11:31:39;;;;;;;;;;;15.90;91.60;;;;;;4306993;33;42691;-77
2022/06/02 11:34:17;;;;;;;;;;;15.90;91.70;;;;;;4319132;33;43009;-78
2022/06/02 11:37:04;;;;;;;;;;;15.90;91.60;;;;;;4306964;33;43750;-78
2022/06/02 11:39:57;;;;;;;;;;;16.00;91.40;;;;;;4319417;33;43144;-77
2022/06/02 11:42:48;;;;;;;;;;;16.00;91.80;;;;;;4307937;33;44308;-76
2022/06/02 11:45:24;;;;;;;;;;;16.10;91.00;;;;;;4319398;33;42890;-77
2022/06/02 11:48:00;;;;;;;;;;;16.10;91.30;;;;;;4319361;33;43556;-78
2022/06/02 11:50:30;;;;;;;;;;;16.20;91.10;;;;;;4319483;33;46190;-77
2022/06/02 11:53:00;;;;;;;;;;;16.20;91.80;;;;;;4319356;33;43552;-78
2022/06/02 11:55:44;;;;;;;;;;;16.20;90.70;;;;;;4318932;33;43847;-77
2022/06/02 11:58:31;;;;;;;;;;;16.30;90.80;;;;;;4320401;33;44647;-77
2022/06/02 12:01:21;;;;;;;;;;;16.30;90.70;;;;;;4307354;33;44337;-77
2022/06/02 12:04:14;;;;;;;;;;;16.30;90.60;;;;;;4320353;33;43370;-77
2022/06/02 12:06:52;;;;;;;;;;;16.30;90.70;;;;;;4306981;33;42755;-76
2022/06/02 12:09:40;;;;;;;;;;;16.30;90.70;;;;;;4320474;33;45898;-77
2022/06/02 12:12:10;;;;;;;;;;;16.40;90.40;;;;;;4320314;33;43013;-77
2022/06/02 12:15:00;;;;;;;;;;;16.50;89.90;;;;;;4319105;33;43602;-77
2022/06/02 12:17:56;;;;;;;;;;;16.50;90.00;;;;;;4304998;33;43884;-77
2022/06/02 12:20:36;;;;;;;;;;;16.40;90.50;;;;;;4304981;33;43678;-77
2022/06/02 12:23:22;;;;;;;;;;;16.50;90.00;;;;;;4317723;33;43777;-77
2022/06/02 12:26:01;;;;;;;;;;;16.50;90.50;;;;;;4317435;33;19998;-77
2022/06/02 12:29:01;;;;;;;;;;;16.40;90.50;;;;;;4316971;33;43925;-77
2022/06/02 12:32:00;;;;;;;;;;;16.50;90.20;;;;;;4304991;33;43202;-77
2022/06/02 12:34:59;;;;;;;;;;;16.50;90.10;;;;;;4317983;33;43201;-76
2022/06/02 12:37:27;;;;;;;;;;;16.60;90.10;;;;;;4284580;33;43478;-79
2022/06/02 12:40:15;;;;;;;;;;;16.60;89.70;;;;;;4316208;33;44003;-78
2022/06/02 12:43:00;;;;;;;;;;;16.70;90.00;;;;;;4304524;33;43310;-77
2022/06/02 12:45:37;;;;;;;;;;;16.80;89.20;;;;;;4304452;33;44243;-77
2022/06/02 12:48:12;;;;;;;;;;;16.80;89.10;;;;;;4316367;33;44295;-77
2022/06/02 12:51:18;;;;;;;;;;;16.80;88.50;;;;;;4316756;33;43483;-77
2022/06/02 12:53:45;;;;;;;;;;;16.80;87.80;;;;;;4304496;33;43857;-77
2022/06/02 12:56:32;;;;;;;;;;;16.90;89.40;;;;;;4316204;33;46110;-77
2022/06/02 12:59:13;;;;;;;;;;;16.90;88.50;;;;;;4315884;33;44198;-77
2022/06/02 13:01:49;;;;;;;;;;;16.90;88.10;;;;;;4316092;33;43943;-76
2022/06/02 13:04:35;;;;;;;;;;;16.90;88.90;;;;;;4316276;33;44223;-78
2022/06/02 13:07:21;;;;;;;;;;;16.90;89.20;;;;;;4316421;33;44290;-78
2022/06/02 13:09:58;;;;;;;;;;;16.90;88.40;;;;;;4303998;33;43576;-77
2022/06/02 13:12:40;;;;;;;;;;;17.00;88.10;;;;;;4316299;33;42545;-77
2022/06/02 13:15:16;;;;;;;;;;;17.00;87.70;;;;;;4315523;33;44332;-77
2022/06/02 13:18:06;;;;;;;;;;;17.00;87.50;;;;;;4304117;33;44815;-77
2022/06/02 13:21:11;;;;;;;;;;;17.10;88.00;;;;;;4303864;33;43555;-77
2022/06/02 13:23:45;;;;;;;;;;;17.00;88.20;;;;;;4303832;33;45966;-76
2022/06/02 13:26:30;;;;;;;;;;;17.00;88.80;;;;;;4317143;33;20001;-77
2022/06/02 13:29:18;;;;;;;;;;;17.10;87.40;;;;;;4315790;33;44176;-78
2022/06/02 13:31:58;;;;;;;;;;;17.10;86.80;;;;;;4304081;33;45843;-77
2022/06/02 13:34:37;;;;;;;;;;;17.20;87.50;;;;;;4317086;33;43932;-77
2022/06/02 13:37:27;;;;;;;;;;;17.20;87.30;;;;;;4304090;33;34705;-77
2022/06/02 13:40:19;;;;;;;;;;;17.20;87.20;;;;;;4304206;33;45594;-77
2022/06/02 13:42:55;;;;;;;;;;;17.20;86.20;;;;;;4303615;33;43037;-77
2022/06/02 13:45:35;;;;;;;;;;;17.30;85.10;;;;;;4316913;33;46199;-77
2022/06/02 13:48:05;;;;;;;;;;;17.40;85.50;;;;;;4315668;33;46056;-77
2022/06/02 13:50:48;;;;;;;;;;;17.40;86.00;;;;;;4315532;33;44856;-76
2022/06/02 13:53:31;;;;;;;;;;;17.40;86.60;;;;;;4303938;33;46208;-77
2022/06/02 13:59:29;;;;;;;;;;;17.40;86.00;;;;;;4317034;33;20010;-77
2022/06/02 14:02:05;;;;;;;;;;;17.40;86.30;;;;;;4315815;33;44574;-77
2022/06/02 14:04:41;;;;;;;;;;;17.40;86.00;;;;;;4315539;33;44974;-77
2022/06/02 14:07:11;;;;;;;;;;;17.50;86.70;;;;;;4303021;33;43491;-77
2022/06/02 14:09:44;;;;;;;;;;;17.50;85.20;;;;;;4316424;33;43473;-77
2022/06/02 14:12:27;;;;;;;;;;;17.60;85.10;;;;;;4315263;33;44385;-77
2022/06/02 14:15:06;;;;;;;;;;;17.60;84.60;;;;;;4315461;33;43420;-77
2022/06/02 14:17:49;;;;;;;;;;;17.60;85.30;;;;;;4316523;33;44699;-77
2022/06/02 14:20:32;;;;;;;;;;;17.70;84.30;;;;;;4314787;33;45767;-77
2022/06/02 14:23:21;;;;;;;;;;;17.70;85.10;;;;;;4303418;33;43746;-77
2022/06/02 14:25:57;;;;;;;;;;;17.70;84.30;;;;;;4315205;33;43429;-77
2022/06/02 14:28:39;;;;;;;;;;;17.70;85.00;;;;;;4314977;33;44261;-77
2022/06/02 14:31:21;;;;;;;;;;;17.70;84.90;;;;;;4303309;33;42913;-77
2022/06/02 14:34:07;;;;;;;;;;;17.80;84.80;;;;;;4315130;33;44846;-77
2022/06/02 14:36:46;;;;;;;;;;;17.70;85.20;;;;;;4316109;33;44067;-77
2022/06/02 14:39:19;;;;;;;;;;;17.80;85.00;;;;;;4315483;33;44223;-77
2022/06/02 14:42:08;;;;;;;;;;;17.80;85.50;;;;;;4315354;33;45811;-77
2022/06/02 14:44:44;;;;;;;;;;;17.90;84.30;;;;;;4315680;33;43630;-77
2022/06/02 14:47:12;;;;;;;;;;;18.00;83.60;;;;;;4315651;33;43294;-76
2022/06/02 14:49:48;;;;;;;;;;;18.00;84.00;;;;;;4314710;33;42531;-76
2022/06/02 14:52:59;;;;;;;;;;;18.00;83.80;;;;;;4315006;33;45778;-77
2022/06/02 14:55:38;;;;;;;;;;;18.00;84.70;;;;;;4244363;33;43482;-77
2022/06/02 14:58:12;;;;;;;;;;;18.00;83.80;;;;;;4256786;33;43228;-77
2022/06/02 15:01:02;;;;;;;;;;;18.00;83.70;;;;;;4294015;33;44698;-77
2022/06/02 15:03:38;;;;;;;;;;;18.10;84.00;;;;;;4294112;33;45430;-77
2022/06/02 15:06:26;;;;;;;;;;;18.10;82.90;;;;;;4315857;33;44605;-77
2022/06/02 15:09:06;;;;;;;;;;;18.10;82.90;;;;;;4315965;33;44884;-78
2022/06/02 15:12:14;;;;;;;;;;;18.20;82.70;;;;;;4303025;33;43370;-77
2022/06/02 15:14:51;;;;;;;;;;;18.20;82.20;;;;;;4256455;33;43619;-77
2022/06/02 15:17:37;;;;;;;;;;;18.20;83.00;;;;;;4256457;33;43497;-77
2022/06/02 15:20:21;;;;;;;;;;;18.20;82.90;;;;;;4295477;33;43457;-78
2022/06/02 15:23:17;;;;;;;;;;;18.20;82.00;;;;;;4304413;33;45639;-77
2022/06/02 15:25:48;;;;;;;;;;;18.20;81.30;;;;;;4314769;33;43473;-78
2022/06/02 15:28:26;;;;;;;;;;;18.30;81.20;;;;;;4314786;33;44936;-77
2022/06/02 15:31:15;;;;;;;;;;;18.30;80.80;;;;;;4303466;33;20009;-77
2022/06/02 15:34:01;;;;;;;;;;;18.30;81.10;;;;;;4302398;33;41847;-77
2022/06/02 15:36:48;;;;;;;;;;;18.40;80.20;;;;;;4314094;33;45826;-77
2022/06/02 15:39:24;;;;;;;;;;;18.40;80.60;;;;;;4314591;33;45990;-77
2022/06/02 15:42:10;;;;;;;;;;;18.40;79.80;;;;;;4314703;33;46174;-77